• Join FlightAware (Why Join?)
  • Login
  • US Flag 
05:49AM EDT


 

Airport Tracker/Info


-or-


 

Live Flight TrackerFlight Track Log ✈ N449ND ✈ 02-Aug-2014 ✈ KPBI - KVRB

Flight Track Log - Related Links

Times and Time Zones

All times are in EDT time to prevent confusion due to time zone crossing. See the N449ND flight status page for this flight to view local times or setup timezone preferences in your user account.

Time Position Orientation Groundspeed Altitude Reporting Facility
EDT Latitude Longitude Course Direction KTS MPH feet Rate Location/Type
03:46PM 26.7403 -80.0608 15° North 77 89 2,000  Level Miami Center
03:47PM 26.7642 -80.0675 346° North 79 91 2,400 420 Climbing Miami Center
03:48PM 26.7864 -80.0736 346° North 81 93 2,900 420 Climbing Miami Center
03:49PM 26.8774 -80.1604 343° North  Level FlightAware Approximate
03:49PM 26.8075 -80.0853 334° Northwest 82 94 3,300  Level Miami Center
03:50PM 26.9130 -80.1728 343° North  Level FlightAware Approximate
03:50PM 26.8283 -80.1011 326° Northwest 84 97 3,700  Level Miami Center
03:51PM 26.8494 -80.1136 332° Northwest 84 97 4,100 120 Climbing Miami Center
03:52PM 26.8758 -80.1294 332° Northwest 103 119 4,000  Descending Miami Center
03:53PM 26.9025 -80.1422 337° Northwest 106 122 4,100  Climbing Miami Center
03:54PM 26.9286 -80.1603 328° Northwest 106 122 4,100  Level Miami Center
03:55PM 26.9564 -80.1742 336° Northwest 106 122 4,100  Level Miami Center
03:56PM 26.9861 -80.1842 343° North 107 123 4,100  Level Miami Center
03:57PM 27.0153 -80.1967 339° North 109 125 4,100  Level Miami Center
03:58PM 27.0419 -80.2053 344° North 99 114 4,100  Level Miami Center
03:59PM 27.0719 -80.2153 343° North 102 117 4,100  Level Miami Center
04:00PM 27.0994 -80.2261 341° North 105 121 4,100  Level Miami Center
04:01PM 27.1289 -80.2364 343° North 106 122 4,100  Level Miami Center
04:02PM 27.1600 -80.2486 341° North 107 123 4,100 -60 Level Miami Center
04:03PM 27.1922 -80.2606 342° North 113 130 4,000  Descending Miami Center
04:04PM 27.2200 -80.2711 341° North 106 122 4,100  Climbing Miami Center
04:05PM 27.2417 -80.3003 310° West 114 131 4,000 -60 Descending Miami Center
04:06PM 27.2633 -80.3275 312° West 113 130 4,000  Level Miami Center
04:07PM 27.2819 -80.3525 310° West 111 128 4,000  Level Miami Center
04:09PM 27.3019 -80.3786 311° West 106 122 4,100  Climbing Miami Center
04:10PM 27.3208 -80.4064 307° West 106 122 4,100 -120 Level Miami Center
04:11PM 27.3419 -80.4361 309° West 113 130 3,900 -540 Descending Miami Center
04:12PM 27.3647 -80.4675 309° West 121 139 3,000 -480 Descending Miami Center
04:13PM 27.3883 -80.4964 313° West 122 140 3,000  Level Miami Center
04:14PM 27.4097 -80.5244 311° West 115 132 3,100  Climbing Miami Center
04:15PM 27.4350 -80.5397 332° Northwest 110 127 3,100  Level Miami Center
04:16PM 27.4650 -80.5575 332° Northwest 114 131 3,100 -60 Level Miami Center
04:17PM 27.4942 -80.5656 346° North 111 128 3,000 -300 Descending Miami Center
04:18PM 27.4983 -80.5306 82° East 109 125 2,500 -480 Descending Miami Center
04:19PM 27.4978 -80.5042 91° East 88 101 2,100 -420 Descending Miami Center
04:20PM 27.4981 -80.4794 89° East 80 92 1,700 -420 Descending Miami Center
04:21PM 27.4975 -80.4533 91° East 80 92 1,300 -480 Descending Miami Center
04:22PM 27.4972 -80.4283 91° East 77 89 800 -420 Descending Miami Center
04:23PM 27.4972 -80.4044 90° East 78 90 500 -240 Descending Miami Center
04:24PM 27.4972 -80.3781 90° East 79 91 400 240 Descending Miami Center
04:25PM 27.4961 -80.3508 93° East 82 94 1,100 540 Climbing Miami Center
04:26PM 27.4942 -80.3272 95° East 77 89 1,600 480 Climbing Miami Center
04:27PM 27.4903 -80.3022 100° East 77 89 2,100 420 Climbing Miami Center
04:28PM 27.4869 -80.2758 98° East 79 91 2,500 420 Climbing Miami Center
04:29PM 27.4839 -80.2483 97° East 85 98 3,000 240 Climbing Miami Center
04:30PM 27.4997 -80.2597 327° Northwest 102 117 3,100  Climbing Miami Center
04:31PM 27.5094 -80.2925 288° West 110 127 3,100 -60 Level Miami Center
04:32PM 27.5219 -80.3306 290° West 120 138 3,000  Descending Miami Center
04:33PM 27.5344 -80.3692 290° West 123 142 3,100  Climbing Miami Center
04:34PM 27.5475 -80.4086 290° West 126 145 3,100  Level Miami Center
04:35PM 27.5606 -80.4478 291° West 126 145 3,100  Level Miami Center
04:36PM 27.5733 -80.4858 291° West 126 145 3,100  Level Miami Center
04:38PM 27.5897 -80.5219 297° West 125 144 3,100 -60 Level Miami Center
04:39PM 27.6119 -80.5533 309° West 124 143 3,000  Descending Miami Center
04:40PM 27.6339 -80.5825 310° West 121 139 3,100  Climbing Miami Center
04:41PM 27.6544 -80.6094 311° West 120 138 3,100 -60 Level Miami Center
04:42PM 27.6767 -80.6386 311° West 119 137 3,000  Descending Miami Center
04:43PM 27.7050 -80.6544 334° Northwest 114 131 3,100 -180 Climbing Miami Center
04:44PM 27.7239 -80.6358 41° Northeast 117 135 2,700 -780 Descending Miami Center
04:45PM 27.7183 -80.6011 100° East 112 129 1,600 -660 Descending Miami Center
04:46PM 27.7067 -80.5731 115° Southeast 97 112 1,400 -60 Descending Miami Center
04:47PM 27.6978 -80.5439 109° East 96 110 1,500 -60 Climbing Miami Center
04:48PM 27.6864 -80.5131 113° Southeast 106 122 1,300 -180 Descending Miami Center
04:49PM 27.6761 -80.4836 112° Southeast 101 116 1,200 -300 Descending Miami Center
04:50PM 27.6681 -80.4594 111° Southeast 82 94 700 -420 Descending Miami Center
04:51PM 27.6589 -80.4328 111° Southeast 84 97 400 -300 Descending Miami Center